sensor_id;sensor_type;location;lat;lon;timestamp;temperature;humidity
16995;DHT22;8614;48.522;9.206;2022-12-13T03:02:15;-7.70;99.90
16995;DHT22;8614;48.522;9.206;2022-12-13T03:04:52;-7.80;99.90
16995;DHT22;8614;48.522;9.206;2022-12-13T03:07:46;-7.80;99.90
16995;DHT22;8614;48.522;9.206;2022-12-13T03:10:18;-7.70;99.90
16995;DHT22;8614;48.522;9.206;2022-12-13T03:12:51;-7.70;99.90
16995;DHT22;8614;48.522;9.206;2022-12-13T03:15:41;-7.80;99.90
16995;DHT22;8614;48.522;9.206;2022-12-13T03:18:13;-7.80;99.90
16995;DHT22;8614;48.522;9.206;2022-12-13T03:20:45;-7.90;99.90
16995;DHT22;8614;48.522;9.206;2022-12-13T03:23:13;-7.80;99.90
16995;DHT22;8614;48.522;9.206;2022-12-13T03:25:40;-7.80;99.90
16995;DHT22;8614;48.522;9.206;2022-12-13T03:28:07;-7.90;99.90
16995;DHT22;8614;48.522;9.206;2022-12-13T03:30:34;-7.90;99.90
16995;DHT22;8614;48.522;9.206;2022-12-13T03:33:01;-7.90;99.90
16995;DHT22;8614;48.522;9.206;2022-12-13T03:35:29;-8.00;99.90
16995;DHT22;8614;48.522;9.206;2022-12-13T03:37:56;-8.00;99.90
16995;DHT22;8614;48.522;9.206;2022-12-13T03:40:24;-7.90;99.90
16995;DHT22;8614;48.522;9.206;2022-12-13T03:42:51;-7.90;99.90
16995;DHT22;8614;48.522;9.206;2022-12-13T03:45:18;-7.90;99.90
16995;DHT22;8614;48.522;9.206;2022-12-13T03:47:45;-7.90;99.90
16995;DHT22;8614;48.522;9.206;2022-12-13T03:50:12;-8.00;99.90
16995;DHT22;8614;48.522;9.206;2022-12-13T03:52:40;-8.00;99.90
16995;DHT22;8614;48.522;9.206;2022-12-13T03:55:07;-8.10;99.90
16995;DHT22;8614;48.522;9.206;2022-12-13T03:57:34;-8.10;99.90
16995;DHT22;8614;48.522;9.206;2022-12-13T04:00:02;-8.10;99.90
16995;DHT22;8614;48.522;9.206;2022-12-13T04:02:37;-8.00;99.90
16995;DHT22;8614;48.522;9.206;2022-12-13T04:05:05;-8.10;99.90
16995;DHT22;8614;48.522;9.206;2022-12-13T04:07:32;-8.10;99.90
16995;DHT22;8614;48.522;9.206;2022-12-13T04:10:00;-8.10;99.90
16995;DHT22;8614;48.522;9.206;2022-12-13T04:12:27;-8.10;99.90
16995;DHT22;8614;48.522;9.206;2022-12-13T04:15:26;-8.20;99.90
16995;DHT22;8614;48.522;9.206;2022-12-13T04:17:53;-8.10;99.90
16995;DHT22;8614;48.522;9.206;2022-12-13T04:20:20;-8.10;99.90
16995;DHT22;8614;48.522;9.206;2022-12-13T04:22:47;-8.10;99.90
16995;DHT22;8614;48.522;9.206;2022-12-13T04:25:16;-8.10;99.90
16995;DHT22;8614;48.522;9.206;2022-12-13T04:27:44;-8.10;99.90
16995;DHT22;8614;48.522;9.206;2022-12-13T04:30:11;-8.10;99.90
16995;DHT22;8614;48.522;9.206;2022-12-13T04:32:38;-8.10;99.90
16995;DHT22;8614;48.522;9.206;2022-12-13T04:35:06;-8.10;99.90
16995;DHT22;8614;48.522;9.206;2022-12-13T04:37:33;-8.10;99.90
16995;DHT22;8614;48.522;9.206;2022-12-13T04:39:59;-8.10;99.90
16995;DHT22;8614;48.522;9.206;2022-12-13T04:42:28;-8.10;99.90
16995;DHT22;8614;48.522;9.206;2022-12-13T04:44:54;-8.10;99.90
16995;DHT22;8614;48.522;9.206;2022-12-13T04:47:21;-8.20;99.90
16995;DHT22;8614;48.522;9.206;2022-12-13T04:49:48;-8.30;99.90
16995;DHT22;8614;48.522;9.206;2022-12-13T04:52:15;-8.30;99.90
16995;DHT22;8614;48.522;9.206;2022-12-13T04:54:42;-8.30;99.90
16995;DHT22;8614;48.522;9.206;2022-12-13T04:57:10;-8.40;99.90
16995;DHT22;8614;48.522;9.206;2022-12-13T04:59:38;-8.30;99.90
16995;DHT22;8614;48.522;9.206;2022-12-13T05:02:06;-8.30;99.90
16995;DHT22;8614;48.522;9.206;2022-12-13T05:04:33;-8.40;99.90
16995;DHT22;8614;48.522;9.206;2022-12-13T05:07:00;-8.40;99.90
16995;DHT22;8614;48.522;9.206;2022-12-13T05:09:27;-8.40;99.90
16995;DHT22;8614;48.522;9.206;2022-12-13T05:11:54;-8.40;99.90
16995;DHT22;8614;48.522;9.206;2022-12-13T05:14:21;-8.30;99.90
16995;DHT22;8614;48.522;9.206;2022-12-13T05:16:50;-8.40;99.90
16995;DHT22;8614;48.522;9.206;2022-12-13T05:19:18;-8.40;99.90
16995;DHT22;8614;48.522;9.206;2022-12-13T05:21:44;-8.50;99.90
16995;DHT22;8614;48.522;9.206;2022-12-13T05:24:11;-8.50;99.90
16995;DHT22;8614;48.522;9.206;2022-12-13T05:26:38;-8.50;99.90
16995;DHT22;8614;48.522;9.206;2022-12-13T05:29:05;-8.50;99.90
16995;DHT22;8614;48.522;9.206;2022-12-13T05:31:32;-8.50;99.90
16995;DHT22;8614;48.522;9.206;2022-12-13T05:34:00;-8.50;99.90
16995;DHT22;8614;48.522;9.206;2022-12-13T05:36:27;-8.50;99.90
16995;DHT22;8614;48.522;9.206;2022-12-13T05:38:55;-8.50;99.90
16995;DHT22;8614;48.522;9.206;2022-12-13T05:41:23;-8.50;99.90
16995;DHT22;8614;48.522;9.206;2022-12-13T05:43:50;-8.40;99.90
16995;DHT22;8614;48.522;9.206;2022-12-13T05:46:17;-8.50;99.90
16995;DHT22;8614;48.522;9.206;2022-12-13T05:48:45;-8.40;99.90
16995;DHT22;8614;48.522;9.206;2022-12-13T05:51:13;-8.30;99.90
16995;DHT22;8614;48.522;9.206;2022-12-13T05:53:41;-8.40;99.90
16995;DHT22;8614;48.522;9.206;2022-12-13T05:56:08;-8.40;99.90
16995;DHT22;8614;48.522;9.206;2022-12-13T05:58:36;-8.50;99.90
16995;DHT22;8614;48.522;9.206;2022-12-13T06:01:05;-8.50;99.90
16995;DHT22;8614;48.522;9.206;2022-12-13T06:03:33;-8.60;99.90
16995;DHT22;8614;48.522;9.206;2022-12-13T06:06:01;-8.60;99.90
16995;DHT22;8614;48.522;9.206;2022-12-13T06:08:29;-8.50;99.90
16995;DHT22;8614;48.522;9.206;2022-12-13T06:10:57;-8.50;99.90
16995;DHT22;8614;48.522;9.206;2022-12-13T06:13:24;-8.50;99.90
16995;DHT22;8614;48.522;9.206;2022-12-13T06:15:52;-8.50;99.90
16995;DHT22;8614;48.522;9.206;2022-12-13T06:18:20;-8.50;99.90
16995;DHT22;8614;48.522;9.206;2022-12-13T06:20:55;-8.60;99.90
16995;DHT22;8614;48.522;9.206;2022-12-13T06:23:22;-8.60;99.90
16995;DHT22;8614;48.522;9.206;2022-12-13T06:25:51;-8.50;99.90
16995;DHT22;8614;48.522;9.206;2022-12-13T06:28:18;-8.40;99.90
16995;DHT22;8614;48.522;9.206;2022-12-13T06:30:45;-8.40;99.90
16995;DHT22;8614;48.522;9.206;2022-12-13T06:33:11;-8.40;99.90
16995;DHT22;8614;48.522;9.206;2022-12-13T06:35:38;-8.40;99.90
16995;DHT22;8614;48.522;9.206;2022-12-13T06:38:05;-8.50;99.90
16995;DHT22;8614;48.522;9.206;2022-12-13T06:40:32;-8.40;99.90
16995;DHT22;8614;48.522;9.206;2022-12-13T06:43:00;-8.50;99.90
16995;DHT22;8614;48.522;9.206;2022-12-13T06:45:27;-8.50;99.90
16995;DHT22;8614;48.522;9.206;2022-12-13T06:47:55;-8.50;99.90
16995;DHT22;8614;48.522;9.206;2022-12-13T06:50:22;-8.40;99.90
16995;DHT22;8614;48.522;9.206;2022-12-13T06:52:49;-8.50;99.90
16995;DHT22;8614;48.522;9.206;2022-12-13T06:55:16;-8.40;99.90
16995;DHT22;8614;48.522;9.206;2022-12-13T06:57:43;-8.40;99.90
16995;DHT22;8614;48.522;9.206;2022-12-13T07:00:12;-8.20;99.90
16995;DHT22;8614;48.522;9.206;2022-12-13T07:02:39;-8.20;99.90
16995;DHT22;8614;48.522;9.206;2022-12-13T07:05:07;-8.30;99.90
16995;DHT22;8614;48.522;9.206;2022-12-13T07:07:35;-8.30;99.90
16995;DHT22;8614;48.522;9.206;2022-12-13T07:10:02;-8.30;99.90
16995;DHT22;8614;48.522;9.206;2022-12-13T07:12:30;-8.40;99.90
16995;DHT22;8614;48.522;9.206;2022-12-13T07:14:57;-8.40;99.90
16995;DHT22;8614;48.522;9.206;2022-12-13T07:17:25;-8.30;99.90
16995;DHT22;8614;48.522;9.206;2022-12-13T07:19:52;-8.20;99.90
16995;DHT22;8614;48.522;9.206;2022-12-13T07:22:19;-8.10;99.90
16995;DHT22;8614;48.522;9.206;2022-12-13T07:24:45;-8.10;99.90
16995;DHT22;8614;48.522;9.206;2022-12-13T07:27:12;-8.10;99.90
16995;DHT22;8614;48.522;9.206;2022-12-13T07:29:39;-8.10;99.90
16995;DHT22;8614;48.522;9.206;2022-12-13T07:32:06;-8.10;99.90
16995;DHT22;8614;48.522;9.206;2022-12-13T07:34:34;-8.10;99.90
16995;DHT22;8614;48.522;9.206;2022-12-13T07:37:01;-8.10;99.90
16995;DHT22;8614;48.522;9.206;2022-12-13T07:39:28;-8.20;99.90
16995;DHT22;8614;48.522;9.206;2022-12-13T07:41:56;-8.20;99.90
16995;DHT22;8614;48.522;9.206;2022-12-13T07:44:23;-8.10;99.90
16995;DHT22;8614;48.522;9.206;2022-12-13T07:46:50;-8.00;99.90
16995;DHT22;8614;48.522;9.206;2022-12-13T07:49:17;-7.90;99.90
16995;DHT22;8614;48.522;9.206;2022-12-13T07:51:45;-7.80;99.90
16995;DHT22;8614;48.522;9.206;2022-12-13T07:54:12;-7.80;99.90
16995;DHT22;8614;48.522;9.206;2022-12-13T07:56:39;-7.70;99.90
16995;DHT22;8614;48.522;9.206;2022-12-13T07:59:06;-7.60;99.90
16995;DHT22;8614;48.522;9.206;2022-12-13T08:01:33;-7.50;99.90
16995;DHT22;8614;48.522;9.206;2022-12-13T08:04:00;-7.50;99.90
16995;DHT22;8614;48.522;9.206;2022-12-13T08:06:28;-7.40;99.90
16995;DHT22;8614;48.522;9.206;2022-12-13T08:08:57;-7.30;99.90
16995;DHT22;8614;48.522;9.206;2022-12-13T08:11:23;-7.20;99.90
16995;DHT22;8614;48.522;9.206;2022-12-13T08:13:52;-7.10;99.90
16995;DHT22;8614;48.522;9.206;2022-12-13T08:16:19;-7.00;99.90
16995;DHT22;8614;48.522;9.206;2022-12-13T08:18:46;-6.90;99.90
16995;DHT22;8614;48.522;9.206;2022-12-13T08:21:13;-6.80;99.90
16995;DHT22;8614;48.522;9.206;2022-12-13T08:23:40;-6.80;99.90
16995;DHT22;8614;48.522;9.206;2022-12-13T08:26:09;-6.70;99.90
16995;DHT22;8614;48.522;9.206;2022-12-13T08:28:36;-6.60;99.90
16995;DHT22;8614;48.522;9.206;2022-12-13T08:31:05;-6.50;99.90
16995;DHT22;8614;48.522;9.206;2022-12-13T08:33:32;-6.30;99.90
16995;DHT22;8614;48.522;9.206;2022-12-13T08:36:07;-6.10;99.90
16995;DHT22;8614;48.522;9.206;2022-12-13T08:38:34;-6.00;99.90
16995;DHT22;8614;48.522;9.206;2022-12-13T08:41:01;-5.90;99.90
16995;DHT22;8614;48.522;9.206;2022-12-13T08:43:29;-5.90;99.90
16995;DHT22;8614;48.522;9.206;2022-12-13T08:45:56;-5.80;99.90
16995;DHT22;8614;48.522;9.206;2022-12-13T08:48:22;-5.70;99.90
16995;DHT22;8614;48.522;9.206;2022-12-13T08:50:49;-5.60;99.90
16995;DHT22;8614;48.522;9.206;2022-12-13T08:53:16;-5.60;99.90
16995;DHT22;8614;48.522;9.206;2022-12-13T08:55:43;-5.70;99.90
16995;DHT22;8614;48.522;9.206;2022-12-13T08:58:10;-5.50;99.90
16995;DHT22;8614;48.522;9.206;2022-12-13T09:00:40;-5.40;99.90
16995;DHT22;8614;48.522;9.206;2022-12-13T09:03:07;-5.40;99.90
16995;DHT22;8614;48.522;9.206;2022-12-13T09:05:34;-5.50;99.90
16995;DHT22;8614;48.522;9.206;2022-12-13T09:08:01;-5.50;99.90
16995;DHT22;8614;48.522;9.206;2022-12-13T09:10:28;-5.30;99.90
16995;DHT22;8614;48.522;9.206;2022-12-13T09:12:56;-5.20;99.90
16995;DHT22;8614;48.522;9.206;2022-12-13T09:15:24;-5.20;99.90
16995;DHT22;8614;48.522;9.206;2022-12-13T09:17:53;-5.10;99.90
16995;DHT22;8614;48.522;9.206;2022-12-13T09:20:20;-5.00;99.90
16995;DHT22;8614;48.522;9.206;2022-12-13T09:22:47;-4.90;99.90
16995;DHT22;8614;48.522;9.206;2022-12-13T09:25:14;-4.90;99.90
16995;DHT22;8614;48.522;9.206;2022-12-13T09:27:41;-4.90;99.90
16995;DHT22;8614;48.522;9.206;2022-12-13T09:30:09;-4.90;99.90
16995;DHT22;8614;48.522;9.206;2022-12-13T09:32:38;-4.70;99.90
16995;DHT22;8614;48.522;9.206;2022-12-13T09:35:08;-4.70;99.90
16995;DHT22;8614;48.522;9.206;2022-12-13T09:37:35;-4.60;99.90
16995;DHT22;8614;48.522;9.206;2022-12-13T09:40:04;-4.60;99.90
16995;DHT22;8614;48.522;9.206;2022-12-13T09:42:32;-4.50;99.90
16995;DHT22;8614;48.522;9.206;2022-12-13T09:45:02;-4.50;99.90
16995;DHT22;8614;48.522;9.206;2022-12-13T09:47:33;-4.50;99.90
16995;DHT22;8614;48.522;9.206;2022-12-13T09:50:05;-4.40;99.90
16995;DHT22;8614;48.522;9.206;2022-12-13T09:52:38;-4.40;99.90
16995;DHT22;8614;48.522;9.206;2022-12-13T09:55:19;-4.40;99.90
16995;DHT22;8614;48.522;9.206;2022-12-13T09:57:47;-4.30;99.90
16995;DHT22;8614;48.522;9.206;2022-12-13T10:00:18;-4.20;99.90
16995;DHT22;8614;48.522;9.206;2022-12-13T10:02:47;-4.10;99.90
16995;DHT22;8614;48.522;9.206;2022-12-13T10:05:25;-4.10;99.90
16995;DHT22;8614;48.522;9.206;2022-12-13T10:07:55;-4.00;99.90
16995;DHT22;8614;48.522;9.206;2022-12-13T10:10:24;-4.00;99.90
16995;DHT22;8614;48.522;9.206;2022-12-13T10:12:56;-3.90;99.90
16995;DHT22;8614;48.522;9.206;2022-12-13T10:15:25;-3.80;99.90
16995;DHT22;8614;48.522;9.206;2022-12-13T10:17:53;-3.70;99.90
16995;DHT22;8614;48.522;9.206;2022-12-13T10:20:21;-3.70;99.90
16995;DHT22;8614;48.522;9.206;2022-12-13T10:22:50;-3.60;99.90
16995;DHT22;8614;48.522;9.206;2022-12-13T10:25:45;-3.60;99.90
16995;DHT22;8614;48.522;9.206;2022-12-13T10:28:15;-3.40;99.90
16995;DHT22;8614;48.522;9.206;2022-12-13T10:30:44;-3.40;99.90
16995;DHT22;8614;48.522;9.206;2022-12-13T10:33:22;-3.30;99.90
16995;DHT22;8614;48.522;9.206;2022-12-13T10:36:29;-3.20;99.90
16995;DHT22;8614;48.522;9.206;2022-12-13T10:38:56;-3.10;99.90
16995;DHT22;8614;48.522;9.206;2022-12-13T10:41:30;-3.00;99.90
16995;DHT22;8614;48.522;9.206;2022-12-13T10:44:16;-2.90;99.90
16995;DHT22;8614;48.522;9.206;2022-12-13T10:46:48;-2.90;99.90
16995;DHT22;8614;48.522;9.206;2022-12-13T10:49:17;-2.80;99.90
16995;DHT22;8614;48.522;9.206;2022-12-13T10:51:45;-2.80;99.90
16995;DHT22;8614;48.522;9.206;2022-12-13T10:54:16;-2.70;99.90
16995;DHT22;8614;48.522;9.206;2022-12-13T10:56:48;-2.60;99.90
16995;DHT22;8614;48.522;9.206;2022-12-13T10:59:27;-2.40;99.90
16995;DHT22;8614;48.522;9.206;2022-12-13T11:01:56;-2.30;99.90
16995;DHT22;8614;48.522;9.206;2022-12-13T11:04:26;-2.30;99.90
16995;DHT22;8614;48.522;9.206;2022-12-13T11:06:55;-2.20;99.90
16995;DHT22;8614;48.522;9.206;2022-12-13T11:09:28;-2.20;99.90
16995;DHT22;8614;48.522;9.206;2022-12-13T11:11:59;-2.10;99.90
16995;DHT22;8614;48.522;9.206;2022-12-13T11:14:28;-2.00;99.90
16995;DHT22;8614;48.522;9.206;2022-12-13T11:16:58;-1.90;99.90
16995;DHT22;8614;48.522;9.206;2022-12-13T11:19:30;-1.80;99.90
16995;DHT22;8614;48.522;9.206;2022-12-13T11:21:58;-1.60;99.90
16995;DHT22;8614;48.522;9.206;2022-12-13T11:24:29;-1.60;99.90
16995;DHT22;8614;48.522;9.206;2022-12-13T11:26:59;-1.60;99.90
16995;DHT22;8614;48.522;9.206;2022-12-13T11:29:49;-1.50;99.90
16995;DHT22;8614;48.522;9.206;2022-12-13T11:32:22;-1.50;99.90
16995;DHT22;8614;48.522;9.206;2022-12-13T11:34:54;-1.40;99.90
16995;DHT22;8614;48.522;9.206;2022-12-13T11:37:27;-1.40;99.90
16995;DHT22;8614;48.522;9.206;2022-12-13T11:39:57;-1.30;99.90
16995;DHT22;8614;48.522;9.206;2022-12-13T11:42:29;-1.20;99.90
16995;DHT22;8614;48.522;9.206;2022-12-13T11:45:01;-1.10;99.90
16995;DHT22;8614;48.522;9.206;2022-12-13T11:47:34;-1.10;99.90
16995;DHT22;8614;48.522;9.206;2022-12-13T11:50:13;-1.10;99.90
16995;DHT22;8614;48.522;9.206;2022-12-13T11:52:45;-1.20;99.90
16995;DHT22;8614;48.522;9.206;2022-12-13T11:55:15;-1.10;99.90
16995;DHT22;8614;48.522;9.206;2022-12-13T11:57:48;-1.10;99.90
16995;DHT22;8614;48.522;9.206;2022-12-13T12:00:26;-0.90;99.90
16995;DHT22;8614;48.522;9.206;2022-12-13T12:02:57;-0.80;99.90
16995;DHT22;8614;48.522;9.206;2022-12-13T12:05:29;-0.80;99.90
16995;DHT22;8614;48.522;9.206;2022-12-13T12:07:59;-0.80;99.90
16995;DHT22;8614;48.522;9.206;2022-12-13T12:10:32;-0.70;99.90
16995;DHT22;8614;48.522;9.206;2022-12-13T12:13:06;-0.50;99.90
16995;DHT22;8614;48.522;9.206;2022-12-13T12:15:39;-0.50;99.90
16995;DHT22;8614;48.522;9.206;2022-12-13T12:18:12;-0.40;99.90
16995;DHT22;8614;48.522;9.206;2022-12-13T12:20:50;-0.40;99.90
16995;DHT22;8614;48.522;9.206;2022-12-13T12:23:28;-0.40;99.90
16995;DHT22;8614;48.522;9.206;2022-12-13T12:26:01;-0.40;99.90
16995;DHT22;8614;48.522;9.206;2022-12-13T12:28:43;-0.40;99.90
16995;DHT22;8614;48.522;9.206;2022-12-13T12:31:18;-0.40;99.90
16995;DHT22;8614;48.522;9.206;2022-12-13T12:33:53;-0.30;99.90
16995;DHT22;8614;48.522;9.206;2022-12-13T12:36:36;-0.30;99.90
16995;DHT22;8614;48.522;9.206;2022-12-13T12:39:31;-0.20;99.90
16995;DHT22;8614;48.522;9.206;2022-12-13T12:42:19;-0.20;99.90
16995;DHT22;8614;48.522;9.206;2022-12-13T12:45:02;-0.20;99.90
16995;DHT22;8614;48.522;9.206;2022-12-13T12:47:38;-0.20;99.90
16995;DHT22;8614;48.522;9.206;2022-12-13T12:50:26;-0.20;99.90
16995;DHT22;8614;48.522;9.206;2022-12-13T12:53:02;-0.20;99.90
16995;DHT22;8614;48.522;9.206;2022-12-13T12:55:42;-0.10;99.90
16995;DHT22;8614;48.522;9.206;2022-12-13T12:58:20;-0.10;99.90
16995;DHT22;8614;48.522;9.206;2022-12-13T13:01:10;-0.10;99.90
16995;DHT22;8614;48.522;9.206;2022-12-13T13:03:41;-0.10;99.90
16995;DHT22;8614;48.522;9.206;2022-12-13T13:06:11;0.00;99.90
16995;DHT22;8614;48.522;9.206;2022-12-13T13:08:42;0.00;99.90
16995;DHT22;8614;48.522;9.206;2022-12-13T13:11:11;-0.10;99.90
16995;DHT22;8614;48.522;9.206;2022-12-13T13:13:44;0.00;99.90
16995;DHT22;8614;48.522;9.206;2022-12-13T13:16:37;-0.10;99.90
16995;DHT22;8614;48.522;9.206;2022-12-13T13:19:09;-0.10;99.90
16995;DHT22;8614;48.522;9.206;2022-12-13T13:21:55;-0.10;99.90
16995;DHT22;8614;48.522;9.206;2022-12-13T13:24:24;-0.10;99.90
16995;DHT22;8614;48.522;9.206;2022-12-13T13:26:54;-0.10;99.90
16995;DHT22;8614;48.522;9.206;2022-12-13T13:32:23;-0.20;99.90
16995;DHT22;8614;48.522;9.206;2022-12-13T13:34:51;-0.20;99.90
16995;DHT22;8614;48.522;9.206;2022-12-13T13:37:27;-0.20;99.90
16995;DHT22;8614;48.522;9.206;2022-12-13T13:39:59;-0.20;99.90
16995;DHT22;8614;48.522;9.206;2022-12-13T13:42:26;-0.20;99.90
16995;DHT22;8614;48.522;9.206;2022-12-13T13:47:53;-0.10;99.90
16995;DHT22;8614;48.522;9.206;2022-12-13T13:54:05;-0.10;99.90
16995;DHT22;8614;48.522;9.206;2022-12-13T14:00:14;-0.10;99.90
16995;DHT22;8614;48.522;9.206;2022-12-13T14:06:36;-0.10;99.90
16995;DHT22;8614;48.522;9.206;2022-12-13T14:12:39;-0.10;99.90
16995;DHT22;8614;48.522;9.206;2022-12-13T14:18:52;-0.10;99.90
16995;DHT22;8614;48.522;9.206;2022-12-13T14:21:30;-0.10;99.90
16995;DHT22;8614;48.522;9.206;2022-12-13T14:24:07;-0.10;99.90
16995;DHT22;8614;48.522;9.206;2022-12-13T14:26:49;-0.10;99.90
16995;DHT22;8614;48.522;9.206;2022-12-13T14:29:22;-0.10;99.90
16995;DHT22;8614;48.522;9.206;2022-12-13T14:31:50;-0.20;99.90
16995;DHT22;8614;48.522;9.206;2022-12-13T14:34:20;-0.20;99.90
16995;DHT22;8614;48.522;9.206;2022-12-13T14:36:56;-0.20;99.90
16995;DHT22;8614;48.522;9.206;2022-12-13T14:39:23;-0.30;99.90
16995;DHT22;8614;48.522;9.206;2022-12-13T14:41:52;-0.30;99.90
16995;DHT22;8614;48.522;9.206;2022-12-13T14:44:23;-0.30;99.90
16995;DHT22;8614;48.522;9.206;2022-12-13T14:46:52;-0.40;99.90
16995;DHT22;8614;48.522;9.206;2022-12-13T14:49:23;-0.50;99.90
16995;DHT22;8614;48.522;9.206;2022-12-13T14:51:54;-0.50;99.90
16995;DHT22;8614;48.522;9.206;2022-12-13T14:54:29;-0.60;99.90
16995;DHT22;8614;48.522;9.206;2022-12-13T14:56:58;-0.60;99.90
16995;DHT22;8614;48.522;9.206;2022-12-13T14:59:27;-0.70;99.90
16995;DHT22;8614;48.522;9.206;2022-12-13T15:01:57;-0.70;99.90
16995;DHT22;8614;48.522;9.206;2022-12-13T15:04:27;-0.80;99.90
16995;DHT22;8614;48.522;9.206;2022-12-13T15:06:58;-0.80;99.90
16995;DHT22;8614;48.522;9.206;2022-12-13T15:09:27;-0.90;99.90
16995;DHT22;8614;48.522;9.206;2022-12-13T15:11:54;-0.90;99.90
16995;DHT22;8614;48.522;9.206;2022-12-13T15:14:22;-1.00;99.90
16995;DHT22;8614;48.522;9.206;2022-12-13T15:16:53;-1.00;99.90
16995;DHT22;8614;48.522;9.206;2022-12-13T15:19:26;-1.10;99.90
16995;DHT22;8614;48.522;9.206;2022-12-13T15:21:57;-1.10;99.90
16995;DHT22;8614;48.522;9.206;2022-12-13T15:24:30;-1.20;99.90
16995;DHT22;8614;48.522;9.206;2022-12-13T15:27:02;-1.20;99.90
16995;DHT22;8614;48.522;9.206;2022-12-13T15:29:30;-1.20;99.90
16995;DHT22;8614;48.522;9.206;2022-12-13T15:32:01;-1.20;99.90
16995;DHT22;8614;48.522;9.206;2022-12-13T15:34:33;-1.20;99.90
16995;DHT22;8614;48.522;9.206;2022-12-13T15:37:03;-1.20;99.90
16995;DHT22;8614;48.522;9.206;2022-12-13T15:39:35;-1.20;99.90
16995;DHT22;8614;48.522;9.206;2022-12-13T15:42:03;-1.30;99.90
16995;DHT22;8614;48.522;9.206;2022-12-13T15:44:43;-1.30;99.90
16995;DHT22;8614;48.522;9.206;2022-12-13T15:47:13;-1.30;99.90
16995;DHT22;8614;48.522;9.206;2022-12-13T15:49:44;-1.30;99.90
16995;DHT22;8614;48.522;9.206;2022-12-13T15:52:30;-1.30;99.90
16995;DHT22;8614;48.522;9.206;2022-12-13T15:55:00;-1.40;99.90
16995;DHT22;8614;48.522;9.206;2022-12-13T15:57:29;-1.40;99.90
16995;DHT22;8614;48.522;9.206;2022-12-13T16:00:19;-1.30;99.90
16995;DHT22;8614;48.522;9.206;2022-12-13T16:02:51;-1.30;99.90
16995;DHT22;8614;48.522;9.206;2022-12-13T16:05:23;-1.40;99.90
16995;DHT22;8614;48.522;9.206;2022-12-13T16:07:53;-1.40;99.90
16995;DHT22;8614;48.522;9.206;2022-12-13T16:10:21;-1.40;99.90
16995;DHT22;8614;48.522;9.206;2022-12-13T16:12:50;-1.40;99.90
16995;DHT22;8614;48.522;9.206;2022-12-13T16:15:19;-1.50;99.90
16995;DHT22;8614;48.522;9.206;2022-12-13T16:17:50;-1.40;99.90
16995;DHT22;8614;48.522;9.206;2022-12-13T16:20:19;-1.40;99.90
16995;DHT22;8614;48.522;9.206;2022-12-13T16:22:47;-1.40;99.90
16995;DHT22;8614;48.522;9.206;2022-12-13T16:25:18;-1.40;99.90
16995;DHT22;8614;48.522;9.206;2022-12-13T16:27:45;-1.50;99.90
16995;DHT22;8614;48.522;9.206;2022-12-13T16:30:22;-1.50;99.90
16995;DHT22;8614;48.522;9.206;2022-12-13T16:32:51;-1.50;99.90
16995;DHT22;8614;48.522;9.206;2022-12-13T16:35:18;-1.50;99.90
16995;DHT22;8614;48.522;9.206;2022-12-13T16:37:45;-1.50;99.90
16995;DHT22;8614;48.522;9.206;2022-12-13T16:40:24;-1.60;99.90
16995;DHT22;8614;48.522;9.206;2022-12-13T16:42:55;-1.60;99.90
16995;DHT22;8614;48.522;9.206;2022-12-13T16:45:22;-1.70;99.90
16995;DHT22;8614;48.522;9.206;2022-12-13T16:47:50;-1.70;99.90
16995;DHT22;8614;48.522;9.206;2022-12-13T16:50:19;-1.70;99.90
16995;DHT22;8614;48.522;9.206;2022-12-13T16:52:46;-1.60;99.90
16995;DHT22;8614;48.522;9.206;2022-12-13T16:55:14;-1.60;99.90
16995;DHT22;8614;48.522;9.206;2022-12-13T16:57:41;-1.60;99.90
16995;DHT22;8614;48.522;9.206;2022-12-13T17:00:11;-1.70;99.90
16995;DHT22;8614;48.522;9.206;2022-12-13T17:02:38;-1.70;99.90
16995;DHT22;8614;48.522;9.206;2022-12-13T17:05:07;-1.70;99.90
16995;DHT22;8614;48.522;9.206;2022-12-13T17:07:34;-1.60;99.90
16995;DHT22;8614;48.522;9.206;2022-12-13T17:10:01;-1.60;99.90
16995;DHT22;8614;48.522;9.206;2022-12-13T17:12:28;-1.60;99.90
16995;DHT22;8614;48.522;9.206;2022-12-13T17:14:55;-1.60;99.90
16995;DHT22;8614;48.522;9.206;2022-12-13T17:17:22;-1.60;99.90
16995;DHT22;8614;48.522;9.206;2022-12-13T17:19:49;-1.60;99.90
16995;DHT22;8614;48.522;9.206;2022-12-13T17:22:17;-1.60;99.90
16995;DHT22;8614;48.522;9.206;2022-12-13T17:24:44;-1.60;99.90
16995;DHT22;8614;48.522;9.206;2022-12-13T17:27:11;-1.60;99.90
16995;DHT22;8614;48.522;9.206;2022-12-13T17:29:38;-1.70;99.90
16995;DHT22;8614;48.522;9.206;2022-12-13T17:32:05;-1.70;99.90
16995;DHT22;8614;48.522;9.206;2022-12-13T17:34:32;-1.70;99.90
16995;DHT22;8614;48.522;9.206;2022-12-13T17:36:59;-1.70;99.90
16995;DHT22;8614;48.522;9.206;2022-12-13T17:39:27;-1.60;99.90
16995;DHT22;8614;48.522;9.206;2022-12-13T17:41:54;-1.70;99.90
16995;DHT22;8614;48.522;9.206;2022-12-13T17:44:22;-1.70;99.90
16995;DHT22;8614;48.522;9.206;2022-12-13T17:46:49;-1.70;99.90
16995;DHT22;8614;48.522;9.206;2022-12-13T17:49:16;-1.70;99.90
16995;DHT22;8614;48.522;9.206;2022-12-13T17:51:43;-1.70;99.90
16995;DHT22;8614;48.522;9.206;2022-12-13T17:54:10;-1.70;99.90
16995;DHT22;8614;48.522;9.206;2022-12-13T17:56:39;-1.70;99.90
16995;DHT22;8614;48.522;9.206;2022-12-13T17:59:06;-1.70;99.90
16995;DHT22;8614;48.522;9.206;2022-12-13T18:01:33;-1.70;99.90
16995;DHT22;8614;48.522;9.206;2022-12-13T18:04:00;-1.70;99.90
16995;DHT22;8614;48.522;9.206;2022-12-13T18:06:27;-1.70;99.90
16995;DHT22;8614;48.522;9.206;2022-12-13T18:08:54;-1.70;99.90
16995;DHT22;8614;48.522;9.206;2022-12-13T18:11:21;-1.70;99.90
16995;DHT22;8614;48.522;9.206;2022-12-13T18:13:49;-1.80;99.90
16995;DHT22;8614;48.522;9.206;2022-12-13T18:16:17;-1.70;99.90
16995;DHT22;8614;48.522;9.206;2022-12-13T18:18:44;-1.70;99.90
16995;DHT22;8614;48.522;9.206;2022-12-13T18:21:13;-1.70;99.90
16995;DHT22;8614;48.522;9.206;2022-12-13T18:23:40;-1.70;99.90
16995;DHT22;8614;48.522;9.206;2022-12-13T18:26:08;-1.70;99.90
16995;DHT22;8614;48.522;9.206;2022-12-13T18:28:36;-1.80;99.90
16995;DHT22;8614;48.522;9.206;2022-12-13T18:31:07;-1.80;99.90
16995;DHT22;8614;48.522;9.206;2022-12-13T18:33:34;-1.80;99.90
16995;DHT22;8614;48.522;9.206;2022-12-13T18:36:02;-1.80;99.90
16995;DHT22;8614;48.522;9.206;2022-12-13T18:38:29;-1.70;99.90
16995;DHT22;8614;48.522;9.206;2022-12-13T18:40:55;-1.80;99.90
16995;DHT22;8614;48.522;9.206;2022-12-13T18:43:23;-1.80;99.90
16995;DHT22;8614;48.522;9.206;2022-12-13T18:45:51;-1.80;99.90
16995;DHT22;8614;48.522;9.206;2022-12-13T18:48:19;-1.90;99.90
16995;DHT22;8614;48.522;9.206;2022-12-13T18:50:46;-1.90;99.90
16995;DHT22;8614;48.522;9.206;2022-12-13T18:53:13;-1.90;99.90
16995;DHT22;8614;48.522;9.206;2022-12-13T18:55:40;-1.90;99.90
16995;DHT22;8614;48.522;9.206;2022-12-13T18:58:07;-1.90;99.90
16995;DHT22;8614;48.522;9.206;2022-12-13T19:00:33;-1.90;99.90
16995;DHT22;8614;48.522;9.206;2022-12-13T19:03:00;-2.00;99.90
16995;DHT22;8614;48.522;9.206;2022-12-13T19:05:29;-2.00;99.90
16995;DHT22;8614;48.522;9.206;2022-12-13T19:07:55;-2.00;99.90
16995;DHT22;8614;48.522;9.206;2022-12-13T19:10:22;-1.90;99.90
16995;DHT22;8614;48.522;9.206;2022-12-13T19:12:51;-1.80;99.90
16995;DHT22;8614;48.522;9.206;2022-12-13T19:15:18;-1.90;99.90
16995;DHT22;8614;48.522;9.206;2022-12-13T19:17:44;-1.90;99.90
16995;DHT22;8614;48.522;9.206;2022-12-13T19:20:12;-1.90;99.90
16995;DHT22;8614;48.522;9.206;2022-12-13T19:22:41;-2.00;99.90
16995;DHT22;8614;48.522;9.206;2022-12-13T19:25:09;-1.90;99.90
16995;DHT22;8614;48.522;9.206;2022-12-13T19:27:35;-1.90;99.90
16995;DHT22;8614;48.522;9.206;2022-12-13T19:30:03;-1.90;99.90